Overview Statistics Trail Chart Weather Telemetry Raw packets
 

This is the latest recevied weather packets stored in our database for station/object K1NOT-WX. If no packets are shown the sender has not sent any weather packets the latest 10 day(s).

<< 21 22 23 24 25 26 27 >>
Time Temp. Humidity Pressure Rain* Wind** Luminosity Snow
1777257732 16.67° C 27% 1001.4 hPa 0 mm - - -
1777256832 17.78° C 26% 1001.4 hPa 0 mm - - -
1777255932 18.33° C 25% 1001 hPa 0 mm - - -
1777255032 19.44° C 23% 1001 hPa 0 mm - - -
1777254132 18.33° C 26% 1001 hPa 0 mm - - -
1777253232 17.78° C 29% 1000.7 hPa 0 mm - - -
1777252332 18.33° C 29% 1001 hPa 0 mm - - -
1777251432 18.33° C 29% 1001 hPa 0 mm - - -
1777250532 18.89° C 29% 1000.7 hPa 0 mm - - -
1777249632 18.89° C 28% 1000.7 hPa 0 mm - - -
1777248732 18.89° C 29% 1000.7 hPa 0 mm - - -
1777247832 18.89° C 31% 1000.7 hPa 0 mm - - -
1777246932 18.33° C 32% 1000.7 hPa 0 mm - - -
1777246032 18.89° C 32% 1000.7 hPa 0 mm - - -
1777245132 18.89° C 33% 1001 hPa 0 mm - - -
1777244232 18.33° C 32% 1000.7 hPa 0 mm - - -
1777243332 18.89° C 31% 1000.7 hPa 0 mm - - -
1777242432 18.33° C 30% 1001 hPa 0 mm - - -
1777241532 18.33° C 30% 1001 hPa 0 mm - - -
1777240632 18.33° C 30% 1001 hPa 0 mm - - -
1777239732 18.89° C 30% 1001.4 hPa 0 mm - - -
1777238832 17.78° C 31% 1001 hPa 0 mm - - -
1777237932 18.33° C 27% 1001 hPa 0 mm - - -
1777237032 18.89° C 27% 1001 hPa 0 mm - - -
1777236132 18.33° C 28% 1001 hPa 0 mm - - -

* Rain latest hour (hover to see other rain measurements)
** Current wind speed in m/s (hover to see current wind gust speed)